sensor_id;sensor_type;location;lat;lon;timestamp;pressure;altitude;pressure_sealevel;temperature;humidity
54172;BME280;40076;52.354;4.970;2022-09-25T00:01:56;101691.13;;;13.50;84.20
54172;BME280;40076;52.354;4.970;2022-09-25T00:04:21;101689.53;;;13.49;84.47
54172;BME280;40076;52.354;4.970;2022-09-25T00:06:46;101694.47;;;13.47;84.30
54172;BME280;40076;52.354;4.970;2022-09-25T00:09:13;101690.16;;;13.46;84.33
54172;BME280;40076;52.354;4.970;2022-09-25T00:11:38;101696.69;;;13.45;84.54
54172;BME280;40076;52.354;4.970;2022-09-25T00:14:04;101693.50;;;13.43;84.50
54172;BME280;40076;52.354;4.970;2022-09-25T00:16:31;101693.81;;;13.41;84.58
54172;BME280;40076;52.354;4.970;2022-09-25T00:18:57;101699.56;;;13.40;84.63
54172;BME280;40076;52.354;4.970;2022-09-25T00:21:42;101701.78;;;13.38;85.03
54172;BME280;40076;52.354;4.970;2022-09-25T00:24:08;101704.50;;;13.38;85.05
54172;BME280;40076;52.354;4.970;2022-09-25T00:26:37;101702.44;;;13.35;85.26
54172;BME280;40076;52.354;4.970;2022-09-25T00:29:04;101703.22;;;13.35;85.19
54172;BME280;40076;52.354;4.970;2022-09-25T00:31:30;101698.13;;;13.34;85.52
54172;BME280;40076;52.354;4.970;2022-09-25T00:33:57;101697.00;;;13.35;85.63
54172;BME280;40076;52.354;4.970;2022-09-25T00:36:23;101698.13;;;13.34;85.58
54172;BME280;40076;52.354;4.970;2022-09-25T00:38:48;101693.81;;;13.33;85.75
54172;BME280;40076;52.354;4.970;2022-09-25T00:41:16;101693.00;;;13.32;85.77
54172;BME280;40076;52.354;4.970;2022-09-25T00:43:45;101686.78;;;13.32;85.89
54172;BME280;40076;52.354;4.970;2022-09-25T00:46:35;101699.84;;;13.30;85.74
54172;BME280;40076;52.354;4.970;2022-09-25T00:52:04;101689.78;;;13.22;85.42
54172;BME280;40076;52.354;4.970;2022-09-25T00:54:33;101691.53;;;13.18;85.12
54172;BME280;40076;52.354;4.970;2022-09-25T00:57:03;101689.44;;;13.14;85.36
54172;BME280;40076;52.354;4.970;2022-09-25T00:59:34;101692.78;;;13.11;85.25
54172;BME280;40076;52.354;4.970;2022-09-25T01:02:01;101698.00;;;13.08;85.18
54172;BME280;40076;52.354;4.970;2022-09-25T01:04:29;101696.72;;;13.05;85.30
54172;BME280;40076;52.354;4.970;2022-09-25T01:06:58;101692.25;;;13.01;85.14
54172;BME280;40076;52.354;4.970;2022-09-25T01:09:24;101701.78;;;12.98;85.25
54172;BME280;40076;52.354;4.970;2022-09-25T01:11:49;101692.69;;;12.94;85.21
54172;BME280;40076;52.354;4.970;2022-09-25T01:14:15;101690.28;;;12.93;85.61
54172;BME280;40076;52.354;4.970;2022-09-25T01:16:51;101689.81;;;12.91;85.56
54172;BME280;40076;52.354;4.970;2022-09-25T01:19:43;101685.47;;;12.90;85.65
54172;BME280;40076;52.354;4.970;2022-09-25T01:30:43;101691.06;;;12.85;85.45
54172;BME280;40076;52.354;4.970;2022-09-25T01:33:17;101685.94;;;12.83;85.57
54172;BME280;40076;52.354;4.970;2022-09-25T01:36:01;101683.22;;;12.83;85.31
54172;BME280;40076;52.354;4.970;2022-09-25T01:43:37;101688.00;;;12.77;84.88
54172;BME280;40076;52.354;4.970;2022-09-25T01:46:28;101684.47;;;12.77;85.02
54172;BME280;40076;52.354;4.970;2022-09-25T01:49:24;101688.59;;;12.74;84.88
54172;BME280;40076;52.354;4.970;2022-09-25T01:51:52;101688.44;;;12.71;84.98
54172;BME280;40076;52.354;4.970;2022-09-25T01:54:35;101695.78;;;12.70;85.16
54172;BME280;40076;52.354;4.970;2022-09-25T01:57:09;101692.28;;;12.70;84.86
54172;BME280;40076;52.354;4.970;2022-09-25T01:59:40;101687.28;;;12.63;85.38
54172;BME280;40076;52.354;4.970;2022-09-25T02:02:11;101689.69;;;12.65;85.94
54172;BME280;40076;52.354;4.970;2022-09-25T02:04:42;101688.25;;;12.67;86.22
54172;BME280;40076;52.354;4.970;2022-09-25T02:07:14;101683.63;;;12.68;86.49
54172;BME280;40076;52.354;4.970;2022-09-25T02:09:50;101684.13;;;12.70;86.41
54172;BME280;40076;52.354;4.970;2022-09-25T02:12:21;101675.69;;;12.71;86.42
54172;BME280;40076;52.354;4.970;2022-09-25T02:14:53;101678.41;;;12.71;86.42
54172;BME280;40076;52.354;4.970;2022-09-25T02:17:28;101679.22;;;12.72;86.38
54172;BME280;40076;52.354;4.970;2022-09-25T02:20:14;101673.28;;;12.70;86.26
54172;BME280;40076;52.354;4.970;2022-09-25T02:23:07;101682.53;;;12.69;86.45
54172;BME280;40076;52.354;4.970;2022-09-25T02:25:37;101684.44;;;12.68;86.28
54172;BME280;40076;52.354;4.970;2022-09-25T02:28:04;101682.03;;;12.67;86.19
54172;BME280;40076;52.354;4.970;2022-09-25T02:30:30;101676.94;;;12.65;86.18
54172;BME280;40076;52.354;4.970;2022-09-25T02:32:55;101684.59;;;12.63;86.16
54172;BME280;40076;52.354;4.970;2022-09-25T02:35:23;101682.97;;;12.62;86.15
54172;BME280;40076;52.354;4.970;2022-09-25T02:37:49;101679.31;;;12.58;86.12
54172;BME280;40076;52.354;4.970;2022-09-25T02:40:14;101673.56;;;12.60;86.36
54172;BME280;40076;52.354;4.970;2022-09-25T02:42:48;101682.47;;;12.60;86.26
54172;BME280;40076;52.354;4.970;2022-09-25T02:48:05;101686.31;;;12.59;86.48
54172;BME280;40076;52.354;4.970;2022-09-25T02:56:39;101685.50;;;12.59;86.48
54172;BME280;40076;52.354;4.970;2022-09-25T02:59:08;101680.41;;;12.57;86.71
54172;BME280;40076;52.354;4.970;2022-09-25T03:01:40;101681.22;;;12.58;86.83
54172;BME280;40076;52.354;4.970;2022-09-25T03:04:08;101683.94;;;12.58;86.92
54172;BME280;40076;52.354;4.970;2022-09-25T03:06:36;101686.63;;;12.58;86.94
54172;BME280;40076;52.354;4.970;2022-09-25T03:09:03;101688.53;;;12.57;86.85
54172;BME280;40076;52.354;4.970;2022-09-25T03:11:28;101693.97;;;12.57;86.68
54172;BME280;40076;52.354;4.970;2022-09-25T03:13:59;101690.47;;;12.57;86.74
54172;BME280;40076;52.354;4.970;2022-09-25T03:16:36;101684.03;;;12.53;86.85
54172;BME280;40076;52.354;4.970;2022-09-25T03:19:06;101682.44;;;12.52;86.94
54172;BME280;40076;52.354;4.970;2022-09-25T03:21:32;101680.88;;;12.51;87.07
54172;BME280;40076;52.354;4.970;2022-09-25T03:23:58;101680.06;;;12.50;87.02
54172;BME280;40076;52.354;4.970;2022-09-25T03:26:24;101693.91;;;12.49;87.13
54172;BME280;40076;52.354;4.970;2022-09-25T03:28:50;101683.38;;;12.47;87.14
54172;BME280;40076;52.354;4.970;2022-09-25T03:31:16;101685.28;;;12.47;87.24
54172;BME280;40076;52.354;4.970;2022-09-25T03:33:42;101691.81;;;12.46;87.29
54172;BME280;40076;52.354;4.970;2022-09-25T03:36:22;101684.00;;;12.44;87.48
54172;BME280;40076;52.354;4.970;2022-09-25T03:38:50;101682.09;;;12.45;87.70
54172;BME280;40076;52.354;4.970;2022-09-25T03:41:18;101683.19;;;12.44;87.89
54172;BME280;40076;52.354;4.970;2022-09-25T03:43:46;101685.28;;;12.47;88.03
54172;BME280;40076;52.354;4.970;2022-09-25T03:46:16;101688.81;;;12.47;88.06
54172;BME280;40076;52.354;4.970;2022-09-25T03:48:42;101680.16;;;12.45;87.79
54172;BME280;40076;52.354;4.970;2022-09-25T03:51:08;101678.25;;;12.46;88.00
54172;BME280;40076;52.354;4.970;2022-09-25T03:53:34;101682.09;;;12.45;88.11
54172;BME280;40076;52.354;4.970;2022-09-25T03:56:01;101678.91;;;12.43;88.19
54172;BME280;40076;52.354;4.970;2022-09-25T03:58:27;101672.69;;;12.42;88.15
54172;BME280;40076;52.354;4.970;2022-09-25T04:00:53;101678.91;;;12.43;88.29
54172;BME280;40076;52.354;4.970;2022-09-25T04:03:22;101669.16;;;12.42;88.23
54172;BME280;40076;52.354;4.970;2022-09-25T04:05:48;101663.25;;;12.40;88.45
54172;BME280;40076;52.354;4.970;2022-09-25T04:08:13;101669.28;;;12.36;88.24
54172;BME280;40076;52.354;4.970;2022-09-25T04:10:38;101667.38;;;12.37;88.17
54172;BME280;40076;52.354;4.970;2022-09-25T04:13:08;101666.09;;;12.34;88.17
54172;BME280;40076;52.354;4.970;2022-09-25T04:15:38;101657.16;;;12.34;88.07
54172;BME280;40076;52.354;4.970;2022-09-25T04:18:04;101660.97;;;12.33;88.23
54172;BME280;40076;52.354;4.970;2022-09-25T04:20:29;101658.56;;;12.31;88.12
54172;BME280;40076;52.354;4.970;2022-09-25T04:22:55;101663.19;;;12.31;88.12
54172;BME280;40076;52.354;4.970;2022-09-25T04:25:20;101660.78;;;12.29;87.75
54172;BME280;40076;52.354;4.970;2022-09-25T04:27:46;101656.81;;;12.27;87.89
54172;BME280;40076;52.354;4.970;2022-09-25T04:30:13;101654.72;;;12.24;87.62
54172;BME280;40076;52.354;4.970;2022-09-25T04:32:38;101656.63;;;12.23;87.51
54172;BME280;40076;52.354;4.970;2022-09-25T04:35:22;101654.84;;;12.19;87.26
54172;BME280;40076;52.354;4.970;2022-09-25T04:37:47;101653.03;;;12.14;87.27
54172;BME280;40076;52.354;4.970;2022-09-25T04:40:13;101659.09;;;12.11;87.25
54172;BME280;40076;52.354;4.970;2022-09-25T04:42:38;101658.91;;;12.08;87.27
54172;BME280;40076;52.354;4.970;2022-09-25T04:45:06;101653.78;;;12.06;87.13
54172;BME280;40076;52.354;4.970;2022-09-25T04:47:31;101655.22;;;12.04;86.95
54172;BME280;40076;52.354;4.970;2022-09-25T04:49:57;101653.63;;;12.03;87.03
54172;BME280;40076;52.354;4.970;2022-09-25T04:52:22;101662.34;;;11.99;86.98
54172;BME280;40076;52.354;4.970;2022-09-25T04:54:47;101658.66;;;11.95;86.91
54172;BME280;40076;52.354;4.970;2022-09-25T04:57:18;101665.50;;;11.93;86.79
54172;BME280;40076;52.354;4.970;2022-09-25T04:59:44;101662.28;;;11.91;86.80
54172;BME280;40076;52.354;4.970;2022-09-25T05:02:10;101661.00;;;11.88;86.96
54172;BME280;40076;52.354;4.970;2022-09-25T05:04:39;101652.38;;;11.86;87.04
54172;BME280;40076;52.354;4.970;2022-09-25T05:07:04;101656.19;;;11.85;87.10
54172;BME280;40076;52.354;4.970;2022-09-25T05:09:30;101652.19;;;11.83;87.08
54172;BME280;40076;52.354;4.970;2022-09-25T05:11:56;101660.00;;;11.84;87.63
54172;BME280;40076;52.354;4.970;2022-09-25T05:14:22;101654.59;;;11.84;88.01
54172;BME280;40076;52.354;4.970;2022-09-25T05:16:48;101657.00;;;11.86;88.23
54172;BME280;40076;52.354;4.970;2022-09-25T05:19:13;101655.88;;;11.87;88.44
54172;BME280;40076;52.354;4.970;2022-09-25T05:21:39;101659.09;;;11.89;88.55
54172;BME280;40076;52.354;4.970;2022-09-25T05:24:04;101655.28;;;11.90;88.63
54172;BME280;40076;52.354;4.970;2022-09-25T05:26:32;101658.75;;;11.90;88.68
54172;BME280;40076;52.354;4.970;2022-09-25T05:28:59;101660.38;;;11.91;89.00
54172;BME280;40076;52.354;4.970;2022-09-25T05:31:24;101659.56;;;11.91;88.70
54172;BME280;40076;52.354;4.970;2022-09-25T05:33:49;101661.81;;;11.89;88.58
54172;BME280;40076;52.354;4.970;2022-09-25T05:36:15;101665.31;;;11.89;88.53
54172;BME280;40076;52.354;4.970;2022-09-25T05:38:42;101658.59;;;11.87;88.25
54172;BME280;40076;52.354;4.970;2022-09-25T05:41:09;101663.22;;;11.86;88.53
54172;BME280;40076;52.354;4.970;2022-09-25T05:43:39;101665.41;;;11.84;88.36
54172;BME280;40076;52.354;4.970;2022-09-25T05:46:05;101672.75;;;11.84;88.29
54172;BME280;40076;52.354;4.970;2022-09-25T05:48:31;101659.84;;;11.81;88.12
54172;BME280;40076;52.354;4.970;2022-09-25T05:50:57;101650.41;;;11.78;88.20
54172;BME280;40076;52.354;4.970;2022-09-25T05:53:23;101648.00;;;11.77;87.87
54172;BME280;40076;52.354;4.970;2022-09-25T05:55:50;101647.78;;;11.73;87.81
54172;BME280;40076;52.354;4.970;2022-09-25T05:58:15;101655.13;;;11.73;87.92
54172;BME280;40076;52.354;4.970;2022-09-25T06:00:41;101654.59;;;11.71;87.87
54172;BME280;40076;52.354;4.970;2022-09-25T06:03:07;101655.22;;;11.68;87.89
54172;BME280;40076;52.354;4.970;2022-09-25T06:05:32;101654.75;;;11.66;87.83
54172;BME280;40076;52.354;4.970;2022-09-25T06:07:57;101658.25;;;11.66;88.00
54172;BME280;40076;52.354;4.970;2022-09-25T06:10:23;101656.63;;;11.65;88.11
54172;BME280;40076;52.354;4.970;2022-09-25T06:12:58;101654.53;;;11.62;88.31
54172;BME280;40076;52.354;4.970;2022-09-25T06:15:28;101659.66;;;11.64;88.42
54172;BME280;40076;52.354;4.970;2022-09-25T06:17:58;101657.25;;;11.62;88.67
54172;BME280;40076;52.354;4.970;2022-09-25T06:20:23;101650.72;;;11.63;88.83
54172;BME280;40076;52.354;4.970;2022-09-25T06:22:53;101657.75;;;11.64;89.21
54172;BME280;40076;52.354;4.970;2022-09-25T06:25:20;101662.06;;;11.65;89.30
54172;BME280;40076;52.354;4.970;2022-09-25T06:27:47;101655.53;;;11.66;89.33
54172;BME280;40076;52.354;4.970;2022-09-25T06:30:12;101663.34;;;11.68;89.88
54172;BME280;40076;52.354;4.970;2022-09-25T06:32:37;101664.63;;;11.70;89.73
54172;BME280;40076;52.354;4.970;2022-09-25T06:35:03;101662.44;;;11.72;89.97
54172;BME280;40076;52.354;4.970;2022-09-25T06:37:29;101671.09;;;11.74;90.12
54172;BME280;40076;52.354;4.970;2022-09-25T06:39:54;101673.47;;;11.76;90.54
54172;BME280;40076;52.354;4.970;2022-09-25T06:42:19;101672.06;;;11.78;90.51
54172;BME280;40076;52.354;4.970;2022-09-25T06:44:45;101670.97;;;11.79;90.73
54172;BME280;40076;52.354;4.970;2022-09-25T06:47:10;101673.06;;;11.82;90.87
54172;BME280;40076;52.354;4.970;2022-09-25T06:49:37;101679.47;;;11.86;91.29
54172;BME280;40076;52.354;4.970;2022-09-25T06:52:02;101685.38;;;11.88;91.42
54172;BME280;40076;52.354;4.970;2022-09-25T06:54:29;101677.44;;;11.92;91.80
54172;BME280;40076;52.354;4.970;2022-09-25T06:56:55;101682.25;;;11.95;92.17
54172;BME280;40076;52.354;4.970;2022-09-25T06:59:20;101678.13;;;11.97;93.10
54172;BME280;40076;52.354;4.970;2022-09-25T07:01:45;101673.97;;;12.00;93.82
54172;BME280;40076;52.354;4.970;2022-09-25T07:04:11;101674.97;;;12.04;93.38
54172;BME280;40076;52.354;4.970;2022-09-25T07:06:37;101670.53;;;12.08;93.74
54172;BME280;40076;52.354;4.970;2022-09-25T07:09:03;101680.13;;;12.14;93.82
54172;BME280;40076;52.354;4.970;2022-09-25T07:11:29;101676.22;;;12.20;93.50
54172;BME280;40076;52.354;4.970;2022-09-25T07:13:55;101669.34;;;12.23;93.98
54172;BME280;40076;52.354;4.970;2022-09-25T07:16:23;101672.13;;;12.31;93.63
54172;BME280;40076;52.354;4.970;2022-09-25T07:18:49;101671.53;;;12.34;93.52
54172;BME280;40076;52.354;4.970;2022-09-25T07:21:17;101677.59;;;12.40;93.00
54172;BME280;40076;52.354;4.970;2022-09-25T07:23:43;101674.75;;;12.45;92.35
54172;BME280;40076;52.354;4.970;2022-09-25T07:26:14;101670.03;;;12.51;92.04
54172;BME280;40076;52.354;4.970;2022-09-25T07:28:40;101667.47;;;12.54;91.64
54172;BME280;40076;52.354;4.970;2022-09-25T07:31:15;101671.63;;;12.60;91.41
54172;BME280;40076;52.354;4.970;2022-09-25T07:33:42;101667.22;;;12.64;91.20
54172;BME280;40076;52.354;4.970;2022-09-25T07:36:07;101672.97;;;12.71;90.85
54172;BME280;40076;52.354;4.970;2022-09-25T07:38:34;101675.06;;;12.74;90.54
54172;BME280;40076;52.354;4.970;2022-09-25T07:41:02;101668.72;;;12.79;90.29
54172;BME280;40076;52.354;4.970;2022-09-25T07:43:27;101668.25;;;12.86;90.32
54172;BME280;40076;52.354;4.970;2022-09-25T07:45:52;101661.56;;;12.92;90.07
54172;BME280;40076;52.354;4.970;2022-09-25T07:48:19;101670.34;;;12.97;90.07
54172;BME280;40076;52.354;4.970;2022-09-25T07:50:45;101661.59;;;13.00;89.69
54172;BME280;40076;52.354;4.970;2022-09-25T07:53:13;101663.84;;;13.07;89.41
54172;BME280;40076;52.354;4.970;2022-09-25T07:55:38;101658.28;;;13.12;89.32
54172;BME280;40076;52.354;4.970;2022-09-25T07:58:04;101664.09;;;13.19;88.92
54172;BME280;40076;52.354;4.970;2022-09-25T08:00:29;101666.16;;;13.22;88.74
54172;BME280;40076;52.354;4.970;2022-09-25T08:02:56;101671.09;;;13.29;88.28
54172;BME280;40076;52.354;4.970;2022-09-25T08:05:22;101673.19;;;13.32;88.31
54172;BME280;40076;52.354;4.970;2022-09-25T08:07:47;101673.84;;;13.37;88.17
54172;BME280;40076;52.354;4.970;2022-09-25T08:10:12;101676.44;;;13.42;87.92
54172;BME280;40076;52.354;4.970;2022-09-25T08:12:37;101688.25;;;13.46;87.68
54172;BME280;40076;52.354;4.970;2022-09-25T08:15:05;101684.56;;;13.51;87.53
54172;BME280;40076;52.354;4.970;2022-09-25T08:17:30;101676.59;;;13.55;87.25
54172;BME280;40076;52.354;4.970;2022-09-25T08:19:56;101681.84;;;13.60;87.42
54172;BME280;40076;52.354;4.970;2022-09-25T08:22:21;101679.31;;;13.63;86.98
54172;BME280;40076;52.354;4.970;2022-09-25T08:24:47;101678.34;;;13.68;86.70
54172;BME280;40076;52.354;4.970;2022-09-25T08:27:13;101678.53;;;13.71;86.62
54172;BME280;40076;52.354;4.970;2022-09-25T08:29:39;101673.56;;;13.73;86.33
54172;BME280;40076;52.354;4.970;2022-09-25T08:32:05;101677.56;;;13.76;86.15
54172;BME280;40076;52.354;4.970;2022-09-25T08:34:30;101681.56;;;13.78;85.85
54172;BME280;40076;52.354;4.970;2022-09-25T08:36:56;101677.38;;;13.81;85.64
54172;BME280;40076;52.354;4.970;2022-09-25T08:39:22;101676.28;;;13.82;85.24
54172;BME280;40076;52.354;4.970;2022-09-25T08:41:54;101680.75;;;13.86;85.08
54172;BME280;40076;52.354;4.970;2022-09-25T08:44:29;101681.22;;;13.88;84.76
54172;BME280;40076;52.354;4.970;2022-09-25T08:47:04;101683.16;;;13.88;84.14
54172;BME280;40076;52.354;4.970;2022-09-25T08:50:09;101674.84;;;13.93;84.09
54172;BME280;40076;52.354;4.970;2022-09-25T08:52:36;101668.59;;;13.93;83.73
54172;BME280;40076;52.354;4.970;2022-09-25T08:55:12;101675.47;;;13.99;83.99
54172;BME280;40076;52.354;4.970;2022-09-25T08:57:41;101675.16;;;14.00;83.52
54172;BME280;40076;52.354;4.970;2022-09-25T09:00:20;101675.28;;;14.04;83.26
54172;BME280;40076;52.354;4.970;2022-09-25T09:02:54;101673.06;;;14.06;83.13
54172;BME280;40076;52.354;4.970;2022-09-25T09:05:29;101683.00;;;14.10;82.82
54172;BME280;40076;52.354;4.970;2022-09-25T09:08:02;101676.09;;;14.13;82.25
54172;BME280;40076;52.354;4.970;2022-09-25T09:15:44;101664.72;;;14.19;80.34
54172;BME280;40076;52.354;4.970;2022-09-25T09:18:25;101667.63;;;14.23;80.22
54172;BME280;40076;52.354;4.970;2022-09-25T09:35:03;101672.84;;;14.37;77.88
54172;BME280;40076;52.354;4.970;2022-09-25T09:40:35;101672.38;;;14.43;75.97
54172;BME280;40076;52.354;4.970;2022-09-25T09:48:32;101669.50;;;14.48;73.66
54172;BME280;40076;52.354;4.970;2022-09-25T09:51:14;101666.44;;;14.50;73.04
54172;BME280;40076;52.354;4.970;2022-09-25T09:53:51;101672.03;;;14.53;73.03
54172;BME280;40076;52.354;4.970;2022-09-25T09:56:32;101665.16;;;14.56;72.42
54172;BME280;40076;52.354;4.970;2022-09-25T09:59:03;101663.69;;;14.58;72.20
54172;BME280;40076;52.354;4.970;2022-09-25T10:01:37;101664.19;;;14.60;72.43
54172;BME280;40076;52.354;4.970;2022-09-25T10:04:11;101663.06;;;14.61;72.08
54172;BME280;40076;52.354;4.970;2022-09-25T10:06:50;101662.41;;;14.64;70.47
54172;BME280;40076;52.354;4.970;2022-09-25T10:09:18;101658.72;;;14.69;70.11
54172;BME280;40076;52.354;4.970;2022-09-25T10:11:45;101653.75;;;14.71;69.57
54172;BME280;40076;52.354;4.970;2022-09-25T10:14:17;101646.50;;;14.75;69.11
54172;BME280;40076;52.354;4.970;2022-09-25T10:16:51;101652.56;;;14.81;68.83
54172;BME280;40076;52.354;4.970;2022-09-25T10:19:23;101644.88;;;14.83;68.67
54172;BME280;40076;52.354;4.970;2022-09-25T10:21:57;101642.31;;;14.86;68.59
54172;BME280;40076;52.354;4.970;2022-09-25T10:24:48;101632.69;;;14.89;68.27
54172;BME280;40076;52.354;4.970;2022-09-25T10:27:32;101635.88;;;14.91;68.37
54172;BME280;40076;52.354;4.970;2022-09-25T10:35:13;101621.44;;;14.99;67.60
54172;BME280;40076;52.354;4.970;2022-09-25T10:37:39;101618.38;;;15.00;66.98
54172;BME280;40076;52.354;4.970;2022-09-25T10:40:19;101614.34;;;15.06;67.08
54172;BME280;40076;52.354;4.970;2022-09-25T10:42:46;101619.59;;;15.12;66.37
54172;BME280;40076;52.354;4.970;2022-09-25T10:47:49;101617.75;;;15.24;66.13
54172;BME280;40076;52.354;4.970;2022-09-25T10:50:33;101617.88;;;15.28;65.78
54172;BME280;40076;52.354;4.970;2022-09-25T10:53:01;101612.44;;;15.28;65.43
54172;BME280;40076;52.354;4.970;2022-09-25T10:55:41;101613.03;;;15.33;65.16
54172;BME280;40076;52.354;4.970;2022-09-25T10:58:26;101609.00;;;15.39;64.48
54172;BME280;40076;52.354;4.970;2022-09-25T11:00:56;101600.94;;;15.43;64.13
54172;BME280;40076;52.354;4.970;2022-09-25T11:03:32;101603.81;;;15.47;64.07
54172;BME280;40076;52.354;4.970;2022-09-25T11:06:02;101601.53;;;15.49;63.60
54172;BME280;40076;52.354;4.970;2022-09-25T11:08:32;101603.81;;;15.47;62.30
54172;BME280;40076;52.354;4.970;2022-09-25T11:11:00;101598.47;;;15.50;62.40
54172;BME280;40076;52.354;4.970;2022-09-25T11:13:30;101602.97;;;15.55;62.35
54172;BME280;40076;52.354;4.970;2022-09-25T11:16:03;101591.41;;;15.58;61.26
54172;BME280;40076;52.354;4.970;2022-09-25T11:18:42;101595.97;;;15.66;61.31
54172;BME280;40076;52.354;4.970;2022-09-25T11:21:34;101591.56;;;15.73;60.98
54172;BME280;40076;52.354;4.970;2022-09-25T11:24:08;101595.25;;;15.77;59.88
54172;BME280;40076;52.354;4.970;2022-09-25T11:26:42;101600.00;;;15.80;59.87
54172;BME280;40076;52.354;4.970;2022-09-25T11:29:14;101601.59;;;15.81;60.63
54172;BME280;40076;52.354;4.970;2022-09-25T11:31:47;101607.75;;;15.78;62.61
54172;BME280;40076;52.354;4.970;2022-09-25T11:37:59;101611.06;;;15.63;66.61
54172;BME280;40076;52.354;4.970;2022-09-25T11:43:29;101608.94;;;15.48;69.69
54172;BME280;40076;52.354;4.970;2022-09-25T11:46:15;101612.16;;;15.41;71.72
54172;BME280;40076;52.354;4.970;2022-09-25T11:48:49;101617.16;;;15.39;70.86
54172;BME280;40076;52.354;4.970;2022-09-25T11:51:36;101613.50;;;15.35;70.83
54172;BME280;40076;52.354;4.970;2022-09-25T11:54:30;101619.63;;;15.32;70.98
54172;BME280;40076;52.354;4.970;2022-09-25T11:57:20;101612.75;;;15.26;71.20
54172;BME280;40076;52.354;4.970;2022-09-25T12:00:06;101610.25;;;15.21;71.39
54172;BME280;40076;52.354;4.970;2022-09-25T12:05:47;101603.25;;;15.12;71.28
54172;BME280;40076;52.354;4.970;2022-09-25T12:13:53;101610.69;;;15.02;73.14
54172;BME280;40076;52.354;4.970;2022-09-25T12:16:27;101606.03;;;15.03;72.51
54172;BME280;40076;52.354;4.970;2022-09-25T12:19:02;101603.81;;;14.96;73.25
54172;BME280;40076;52.354;4.970;2022-09-25T12:27:08;101586.69;;;14.96;74.14
54172;BME280;40076;52.354;4.970;2022-09-25T12:39:51;101566.69;;;15.00;74.83
54172;BME280;40076;52.354;4.970;2022-09-25T12:42:28;101561.72;;;15.02;74.80
54172;BME280;40076;52.354;4.970;2022-09-25T12:48:10;101574.31;;;15.07;75.16
54172;BME280;40076;52.354;4.970;2022-09-25T12:50:54;101567.41;;;15.10;75.45
54172;BME280;40076;52.354;4.970;2022-09-25T12:53:33;101557.34;;;15.10;76.13
54172;BME280;40076;52.354;4.970;2022-09-25T12:56:13;101552.31;;;15.12;76.19
54172;BME280;40076;52.354;4.970;2022-09-25T12:58:50;101553.94;;;15.13;75.42
54172;BME280;40076;52.354;4.970;2022-09-25T13:01:23;101553.59;;;15.15;74.76
54172;BME280;40076;52.354;4.970;2022-09-25T13:05:04;101551.00;;;15.18;74.98
54172;BME280;40076;52.354;4.970;2022-09-25T13:07:16;101540.56;;;15.20;75.00
54172;BME280;40076;52.354;4.970;2022-09-25T13:09:47;101537.84;;;15.20;74.43
54172;BME280;40076;52.354;4.970;2022-09-25T13:15:12;101533.34;;;15.24;72.88
54172;BME280;40076;52.354;4.970;2022-09-25T13:17:39;101529.94;;;15.27;72.34
54172;BME280;40076;52.354;4.970;2022-09-25T13:25:38;101532.59;;;15.36;71.34
54172;BME280;40076;52.354;4.970;2022-09-25T13:28:07;101531.16;;;15.38;71.29
54172;BME280;40076;52.354;4.970;2022-09-25T13:30:33;101519.25;;;15.43;70.55
54172;BME280;40076;52.354;4.970;2022-09-25T13:33:01;101520.50;;;15.45;70.17
54172;BME280;40076;52.354;4.970;2022-09-25T13:35:31;101521.41;;;15.50;69.95
54172;BME280;40076;52.354;4.970;2022-09-25T13:38:14;101517.75;;;15.54;70.25
54172;BME280;40076;52.354;4.970;2022-09-25T13:41:11;101517.19;;;15.61;69.99
54172;BME280;40076;52.354;4.970;2022-09-25T13:43:38;101509.59;;;15.66;69.29
54172;BME280;40076;52.354;4.970;2022-09-25T13:48:46;101507.91;;;15.74;68.78
54172;BME280;40076;52.354;4.970;2022-09-25T14:03:03;101493.81;;;15.72;68.73
54172;BME280;40076;52.354;4.970;2022-09-25T14:05:04;101495.78;;;15.71;68.94
54172;BME280;40076;52.354;4.970;2022-09-25T14:07:30;101486.81;;;15.71;69.40
54172;BME280;40076;52.354;4.970;2022-09-25T14:09:56;101488.72;;;15.70;69.38
54172;BME280;40076;52.354;4.970;2022-09-25T14:12:42;101480.56;;;15.70;69.13
54172;BME280;40076;52.354;4.970;2022-09-25T14:15:17;101480.88;;;15.69;69.04
54172;BME280;40076;52.354;4.970;2022-09-25T14:17:45;101477.38;;;15.68;68.92
54172;BME280;40076;52.354;4.970;2022-09-25T14:20:39;101479.28;;;15.68;68.99
54172;BME280;40076;52.354;4.970;2022-09-25T14:25:40;101477.22;;;15.65;68.24
54172;BME280;40076;52.354;4.970;2022-09-25T14:28:23;101483.47;;;15.65;68.82
54172;BME280;40076;52.354;4.970;2022-09-25T14:36:40;101474.88;;;15.63;69.19
54172;BME280;40076;52.354;4.970;2022-09-25T14:39:12;101469.06;;;15.65;68.85
54172;BME280;40076;52.354;4.970;2022-09-25T14:42:08;101470.22;;;15.64;68.41
54172;BME280;40076;52.354;4.970;2022-09-25T14:47:42;101462.81;;;15.64;68.09
54172;BME280;40076;52.354;4.970;2022-09-25T14:52:42;101457.50;;;15.68;68.75
54172;BME280;40076;52.354;4.970;2022-09-25T14:55:14;101457.25;;;15.61;68.44
54172;BME280;40076;52.354;4.970;2022-09-25T14:57:40;101448.28;;;15.60;68.00
54172;BME280;40076;52.354;4.970;2022-09-25T15:00:07;101451.47;;;15.62;68.06
54172;BME280;40076;52.354;4.970;2022-09-25T15:02:41;101449.56;;;15.63;68.27
54172;BME280;40076;52.354;4.970;2022-09-25T15:05:23;101455.44;;;15.65;68.58
54172;BME280;40076;52.354;4.970;2022-09-25T15:07:57;101449.56;;;15.63;69.52
54172;BME280;40076;52.354;4.970;2022-09-25T15:13:14;101445.78;;;15.55;70.67
54172;BME280;40076;52.354;4.970;2022-09-25T15:15:45;101445.31;;;15.53;71.74
54172;BME280;40076;52.354;4.970;2022-09-25T15:18:30;101436.31;;;15.53;71.95
54172;BME280;40076;52.354;4.970;2022-09-25T15:20:56;101441.47;;;15.54;72.52
54172;BME280;40076;52.354;4.970;2022-09-25T15:23:23;101442.25;;;15.55;73.11